KFUL/FUL METAR and TAF weather

Enter ICAO airport designator
Station Type Date Time Source
KFUL METAR 2020/11/25 20:53 UTC NOAA

KFUL 252053Z 21004KT 5SM HZ CLR 20/11 A3006 RMK AO2 SLP177 T02000106 58024


Station Type Date Time Source
KFUL Decoded METAR 2020/11/25 20:53 UTC NOAA

FULLERTON MUNICIPAL AIRPORT , CA, United States (KFUL) 33-52N 117-59W 35M
Nov 25, 2020 - 03:53 PM EST / 2020.11.25 2053 UTC
Wind: from the SSW (210 degrees) at 5 MPH (4 KT):0
Visibility: 5 mile(s):0
Sky conditions: clear
Weather: haze
Temperature: 68.0 F (20.0 C)
Dew Point: 51.1 F (10.6 C)
Relative Humidity: 54%
Pressure (altimeter): 30.06 in. Hg (1017 hPa)
Pressure tendency: 0.07 inches (2.4 hPa) lower than three hours ago
ob: KFUL 252053Z 21004KT 5SM HZ CLR 20/11 A3006 RMK AO2 SLP177 T02000106 58024
cycle: 21

Station Type Date Time Source
KFUL TAF UTC NOAA

Error!

Example: see airport list